createdAt,value
2022-07-31T05:24:06.547Z,7.75
2022-07-31T05:26:36.442Z,5.70
2022-07-31T05:29:06.440Z,5.50
2022-07-31T05:31:36.506Z,7.28
2022-07-31T05:34:06.840Z,4.90
2022-07-31T05:36:36.875Z,6.32
2022-07-31T05:39:06.842Z,5.03
2022-07-31T05:41:36.909Z,3.45
2022-07-31T05:44:06.866Z,9.07
2022-07-31T05:46:37.156Z,4.95
2022-07-31T05:49:07.734Z,5.22
2022-07-31T05:51:38.104Z,4.22
2022-07-31T05:54:08.248Z,2.63
2022-07-31T05:56:38.264Z,5.93
2022-07-31T05:59:08.520Z,6.53
2022-07-31T06:01:41.269Z,5.50
2022-07-31T06:04:12.199Z,7.18
2022-07-31T06:06:42.109Z,3.80
2022-07-31T06:09:12.134Z,5.85
2022-07-31T06:11:42.006Z,6.20
2022-07-31T06:14:11.917Z,4.80
2022-07-31T06:16:41.789Z,6.38
2022-07-31T06:19:11.692Z,8.02
2022-07-31T06:21:42.633Z,6.90
2022-07-31T06:24:15.407Z,3.35
2022-07-31T06:26:46.979Z,6.05
2022-07-31T06:29:18.579Z,4.32
2022-07-31T06:31:52.040Z,5.75
2022-07-31T06:34:22.282Z,8.07
2022-07-31T06:36:52.829Z,6.70
2022-07-31T06:39:23.123Z,6.00
2022-07-31T06:42:13.510Z,3.72
2022-07-31T06:44:46.371Z,9.43
2022-07-31T06:47:16.891Z,8.88
2022-07-31T06:49:47.425Z,4.45
2022-07-31T06:52:18.207Z,8.07
2022-07-31T06:54:49.803Z,4.22
2022-07-31T06:57:19.913Z,6.18
2022-07-31T06:59:50.020Z,4.53
2022-07-31T07:02:20.770Z,5.57
2022-07-31T07:05:05.140Z,8.13
2022-07-31T07:07:38.713Z,5.40
2022-07-31T07:10:09.009Z,4.43
2022-07-31T07:12:38.914Z,3.35
2022-07-31T07:15:09.315Z,7.35
2022-07-31T07:17:40.364Z,5.50
2022-07-31T07:20:10.496Z,4.63
2022-07-31T07:22:40.422Z,6.20
2022-07-31T07:25:11.668Z,8.35
2022-07-31T07:27:41.593Z,5.55
2022-07-31T07:30:11.708Z,6.07
2022-07-31T07:32:41.584Z,5.55
2022-07-31T07:35:13.990Z,5.15
2022-07-31T07:37:45.026Z,5.45
2022-07-31T07:40:15.037Z,5.30
2022-07-31T07:42:44.959Z,8.27
2022-07-31T07:45:15.797Z,5.25
2022-07-31T07:47:54.159Z,7.47
2022-07-31T07:50:35.926Z,4.43
2022-07-31T07:53:06.149Z,9.02
2022-07-31T07:55:37.303Z,7.47
2022-07-31T07:58:11.895Z,4.50
2022-07-31T08:00:42.807Z,5.68
2022-07-31T08:03:50.443Z,5.68
2022-07-31T08:06:03.041Z,3.95
2022-07-31T08:08:32.922Z,5.43
2022-07-31T08:11:04.603Z,7.88
2022-07-31T08:13:34.635Z,5.03
2022-07-31T08:16:05.552Z,6.20
2022-07-31T08:18:35.479Z,4.20
2022-07-31T08:21:05.338Z,6.07
2022-07-31T08:23:36.533Z,7.93
2022-07-31T08:26:06.759Z,4.05
2022-07-31T08:28:37.569Z,3.72
2022-07-31T08:31:09.475Z,3.25
2022-07-31T08:33:39.435Z,4.70
2022-07-31T08:36:10.715Z,5.68
2022-07-31T08:38:41.252Z,7.07
2022-07-31T08:41:11.163Z,6.50
2022-07-31T08:44:02.930Z,5.63
2022-07-31T08:46:31.543Z,6.10
2022-07-31T08:49:05.316Z,5.40
2022-07-31T08:51:50.902Z,8.18
2022-07-31T08:54:29.772Z,6.35
2022-07-31T08:56:59.966Z,7.03
2022-07-31T08:59:30.017Z,6.28
2022-07-31T09:02:02.390Z,4.88
2022-07-31T09:04:32.506Z,6.47
2022-07-31T09:07:03.269Z,7.32
2022-07-31T09:09:41.151Z,6.20
2022-07-31T09:12:36.248Z,7.65
2022-07-31T14:46:27.458Z,3.50
2022-07-31T14:48:57.427Z,4.63
2022-07-31T14:51:27.777Z,3.70
2022-07-31T14:57:04.090Z,4.90
2022-07-31T14:59:34.279Z,4.35
2022-07-31T15:02:04.300Z,4.43
2022-07-31T15:04:34.200Z,3.70
2022-07-31T15:07:32.487Z,5.20
2022-07-31T15:19:52.367Z,6.13
2022-07-31T15:23:24.017Z,4.10
2022-07-31T15:26:47.980Z,3.33
2022-07-31T15:30:06.107Z,4.20
2022-07-31T15:33:12.498Z,3.70
2022-07-31T15:35:38.251Z,4.18
2022-07-31T15:38:08.329Z,4.28
2022-07-31T15:40:38.279Z,3.15
2022-07-31T15:43:08.251Z,2.17
2022-07-31T15:45:38.178Z,2.83
2022-07-31T15:48:10.280Z,2.92
2022-07-31T15:50:40.366Z,2.47
2022-07-31T15:53:10.259Z,5.63
2022-07-31T15:55:40.229Z,2.05
2022-07-31T15:58:10.235Z,2.08
2022-07-31T16:00:40.192Z,3.42
2022-07-31T16:03:10.121Z,1.80
2022-07-31T16:05:45.378Z,3.87
2022-07-31T16:08:35.895Z,2.40
2022-07-31T16:11:06.563Z,4.05
2022-07-31T16:13:39.841Z,3.85
2022-07-31T16:16:10.099Z,1.42
2022-07-31T16:18:39.989Z,2.22
2022-07-31T16:21:10.019Z,2.53
2022-07-31T16:23:39.936Z,3.65
2022-07-31T16:26:10.497Z,1.33
2022-07-31T16:28:40.682Z,1.85
2022-07-31T16:31:10.636Z,1.45
2022-07-31T16:34:00.271Z,5.88
2022-07-31T16:36:30.156Z,1.50
2022-07-31T16:39:19.433Z,1.92
2022-07-31T16:41:54.466Z,1.45
2022-07-31T16:44:25.073Z,2.03
2022-07-31T16:46:55.153Z,3.80
2022-07-31T16:49:35.681Z,1.67
2022-07-31T16:52:10.360Z,1.13
2022-07-31T16:54:40.328Z,1.30
2022-07-31T16:57:10.547Z,1.77
2022-07-31T16:59:56.508Z,1.00
2022-07-31T17:02:28.753Z,0.93
2022-07-31T17:04:59.007Z,1.27
2022-07-31T17:07:30.375Z,0.85
2022-07-31T17:10:00.359Z,3.55
2022-07-31T17:12:30.399Z,1.55
2022-07-31T17:15:00.299Z,2.08
2022-07-31T17:17:30.222Z,2.63
2022-07-31T17:20:00.928Z,1.52
2022-07-31T17:22:30.818Z,0.73
2022-07-31T17:25:01.836Z,2.22
2022-07-31T17:27:32.150Z,1.67
2022-07-31T17:30:03.312Z,2.78
2022-07-31T17:32:34.090Z,0.80
2022-07-31T17:35:04.360Z,1.30
2022-07-31T17:37:34.325Z,0.90
2022-07-31T17:40:13.011Z,0.70
2022-07-31T17:42:54.827Z,1.90
2022-07-31T17:45:25.095Z,1.00
2022-07-31T17:51:27.335Z,1.05
2022-07-31T17:54:00.686Z,1.13
2022-07-31T17:56:30.694Z,5.00
2022-07-31T17:59:05.893Z,1.77
2022-07-31T18:01:36.496Z,1.03
2022-07-31T18:04:06.787Z,0.85
2022-07-31T18:06:49.359Z,0.70
2022-07-31T18:09:24.637Z,0.85
2022-07-31T18:11:55.065Z,0.98
2022-07-31T18:14:25.524Z,0.50
2022-07-31T18:16:56.255Z,0.93
2022-07-31T18:19:26.359Z,0.80
2022-07-31T18:21:57.521Z,1.25
2022-07-31T18:24:27.405Z,0.93
2022-07-31T18:26:57.393Z,1.70
2022-07-31T18:29:27.323Z,0.63
2022-07-31T18:31:57.382Z,1.23
2022-07-31T18:34:27.233Z,1.00
2022-07-31T18:36:57.116Z,0.82
2022-07-31T18:39:27.403Z,0.35
2022-07-31T18:41:57.663Z,0.60
2022-07-31T18:44:27.964Z,0.80
2022-07-31T18:46:57.927Z,0.85
2022-07-31T18:51:02.053Z,0.50
2022-07-31T18:52:42.317Z,0.70
2022-07-31T18:55:12.403Z,0.40
2022-07-31T18:58:00.094Z,0.95
2022-07-31T19:00:30.373Z,0.65
2022-07-31T19:03:01.359Z,1.23
2022-07-31T19:05:31.232Z,1.27
2022-07-31T19:08:01.244Z,0.70
2022-07-31T19:11:03.530Z,1.23
2022-07-31T19:13:33.499Z,0.75
2022-07-31T19:16:03.714Z,0.73
2022-07-31T19:18:34.140Z,0.73
2022-07-31T19:21:21.220Z,0.52
2022-07-31T19:23:54.185Z,2.45
2022-07-31T19:26:24.106Z,1.55
2022-07-31T19:28:54.136Z,0.73
2022-07-31T19:31:24.272Z,1.50
2022-07-31T19:33:54.544Z,0.80
2022-07-31T19:36:24.405Z,0.65
2022-07-31T19:38:54.714Z,2.22
2022-07-31T19:41:24.687Z,1.13
2022-07-31T19:43:54.619Z,0.60
2022-07-31T19:46:24.617Z,1.77
2022-07-31T19:48:54.699Z,0.60
2022-07-31T19:51:24.977Z,0.90
2022-07-31T19:54:15.245Z,0.47
2022-07-31T19:56:45.549Z,0.40
2022-07-31T19:59:18.391Z,0.40
2022-07-31T20:01:48.246Z,0.57
2022-07-31T20:04:18.162Z,0.60
2022-07-31T20:06:48.458Z,0.50
2022-07-31T20:09:18.417Z,0.50
2022-07-31T20:11:55.396Z,0.60
2022-07-31T20:14:25.792Z,1.30
2022-07-31T20:16:56.175Z,0.60
2022-07-31T20:19:26.113Z,0.52
2022-07-31T20:21:56.014Z,0.70
2022-07-31T20:24:27.972Z,0.75
2022-07-31T20:26:57.868Z,0.85
2022-07-31T20:29:29.677Z,0.77
2022-07-31T20:31:59.560Z,0.80
2022-07-31T20:34:29.948Z,0.60
2022-07-31T20:37:02.808Z,0.57
2022-07-31T20:39:33.483Z,0.80
2022-07-31T20:42:04.782Z,1.27
2022-07-31T20:44:35.008Z,0.90
2022-07-31T20:47:06.057Z,2.28
2022-07-31T20:49:36.450Z,1.98
2022-07-31T20:52:07.728Z,1.15
2022-07-31T20:54:59.084Z,1.95
2022-07-31T20:57:28.959Z,0.75
2022-07-31T20:59:59.228Z,0.80
2022-07-31T21:02:29.081Z,1.75
2022-07-31T21:04:59.353Z,1.75
2022-07-31T21:07:32.440Z,0.70
2022-07-31T21:13:22.366Z,0.60
2022-07-31T21:16:32.977Z,1.50
2022-07-31T21:22:46.815Z,1.35
2022-07-31T21:25:13.123Z,0.82
2022-07-31T21:28:08.106Z,0.77
2022-07-31T21:31:04.046Z,1.50
2022-07-31T21:33:58.104Z,1.70
2022-07-31T21:38:27.628Z,1.30
2022-07-31T21:39:53.368Z,1.35
2022-07-31T21:42:23.464Z,0.63
2022-07-31T21:44:55.863Z,1.45
2022-07-31T21:47:28.606Z,1.88
2022-07-31T21:50:27.870Z,0.50
2022-07-31T21:52:59.283Z,0.90
2022-07-31T21:55:29.156Z,0.90
2022-07-31T21:58:00.035Z,3.63
2022-07-31T22:00:30.322Z,1.92
2022-07-31T22:03:04.462Z,1.10
2022-07-31T22:05:52.982Z,0.60
2022-07-31T22:08:23.164Z,1.30
2022-07-31T22:10:53.710Z,0.77
2022-07-31T22:13:23.603Z,0.70
2022-07-31T22:16:00.689Z,1.58
2022-07-31T22:18:32.280Z,0.85
2022-07-31T22:21:02.855Z,1.13
2022-07-31T22:23:32.780Z,1.77
2022-07-31T22:26:02.846Z,1.30
2022-07-31T22:28:32.783Z,1.08
2022-07-31T22:31:03.249Z,2.45
2022-07-31T22:33:33.722Z,2.08
2022-07-31T22:36:05.309Z,0.52
2022-07-31T22:38:36.284Z,0.60
2022-07-31T22:41:06.931Z,0.60
2022-07-31T22:44:10.669Z,0.50
2022-07-31T22:46:26.993Z,0.30
2022-07-31T22:49:00.424Z,0.47
2022-07-31T22:51:30.610Z,0.57
2022-07-31T22:54:00.537Z,0.90
2022-07-31T22:56:30.452Z,0.70
2022-07-31T22:59:00.325Z,1.70
2022-07-31T23:01:44.812Z,0.63
2022-07-31T23:04:14.685Z,1.42
2022-07-31T23:06:44.611Z,0.50
2022-07-31T23:09:14.507Z,0.70
2022-07-31T23:11:44.524Z,0.70
2022-07-31T23:14:14.477Z,1.73
2022-07-31T23:16:45.246Z,2.45
2022-07-31T23:19:18.419Z,1.45
2022-07-31T23:21:49.745Z,0.55
2022-07-31T23:24:19.987Z,1.20
2022-07-31T23:26:49.966Z,2.92
2022-07-31T23:29:21.173Z,0.55
2022-07-31T23:31:51.171Z,0.73
2022-07-31T23:34:21.231Z,1.05
2022-07-31T23:36:51.209Z,0.60
2022-07-31T23:39:24.563Z,0.30
2022-07-31T23:42:12.624Z,0.50
